KGUP/GUP METAR and TAF weather

Enter ICAO airport designator
Station Type Date Time Source
KGUP METAR 2019/02/23 22:53 UTC NOAA

KGUP 232253Z AUTO 22012KT 10SM CLR M02/M08 A3018 RMK AO2 SLP283 T10221083


Station Type Date Time Source
KGUP Decoded METAR 2019/02/23 22:53 UTC NOAA

GALLUP MUNICIPAL AIRPORT, NM, United States (KGUP) 35-31N 108-47W 1971M
Feb 23, 2019 - 05:53 PM EST / 2019.02.23 2253 UTC
Wind: from the SW (220 degrees) at 14 MPH (12 KT):0
Visibility: 10 mile(s):0
Sky conditions: clear
Temperature: 28.0 F (-2.2 C)
Windchill: 17 F (-8 C):1
Dew Point: 17.1 F (-8.3 C)
Relative Humidity: 62%
Pressure (altimeter): 30.18 in. Hg (1022 hPa)
ob: KGUP 232253Z AUTO 22012KT 10SM CLR M02/M08 A3018 RMK AO2 SLP283 T10221083
cycle: 23

Station Type Date Time Source
KGUP TAF 2019/02/23 18:24 UTC NOAA

TAF KGUP 231721Z 2318/2418 26009KT P6SM SKC
FM240000 VRB06KT P6SM SKC


Example: see airport list